Time;durP1;ratioP1;P1;durP2;ratioP2;P2;SDS_P1;SDS_P2;PMS_P1;PMS_P2;Temp;Humidity;BMP_temperature;BMP_pressure;BME280_temperature;BME280_humidity;BME280_pressure;Samples;Min_cycle;Max_cycle;Signal;HPM_P1;HPM_P2
2023/06/15 00:01:31;;;;;;;6.70;3.40;;;;;;;;;;5079472;28;20198;-86
2023/06/15 00:03:58;;;;;;;4.37;3.37;;;;;;;;;;5063577;28;20182;-86
2023/06/15 00:06:24;;;;;;;4.10;3.70;;;;;;;;;;5063391;28;20214;-87
2023/06/15 00:08:50;;;;;;;4.30;3.50;;;;;;;;;;5063994;28;20186;-86
2023/06/15 00:11:16;;;;;;;5.53;3.47;;;;;;;;;;5079432;28;20179;-86
2023/06/15 00:13:42;;;;;;;5.63;3.93;;;;;;;;;;5059769;28;20190;-86
2023/06/15 00:16:08;;;;;;;5.47;3.60;;;;;;;;;;5062936;28;20266;-87
2023/06/15 00:18:37;;;;;;;5.30;3.80;;;;;;;;;;5073496;28;20218;-87
2023/06/15 00:21:03;;;;;;;7.20;3.97;;;;;;;;;;5067622;28;20226;-87
2023/06/15 00:23:29;;;;;;;7.77;4.27;;;;;;;;;;5087772;28;20185;-86
2023/06/15 00:25:56;;;;;;;6.20;4.20;;;;;;;;;;5072860;28;20200;-86
2023/06/15 00:28:22;;;;;;;6.87;4.23;;;;;;;;;;5075667;28;20233;-87
2023/06/15 00:30:48;;;;;;;5.57;3.97;;;;;;;;;;5078441;28;20277;-86
2023/06/15 00:33:14;;;;;;;9.30;4.10;;;;;;;;;;5063755;28;20222;-86
2023/06/15 00:35:40;;;;;;;5.00;4.10;;;;;;;;;;5058658;28;20183;-87
2023/06/15 00:38:06;;;;;;;5.67;3.80;;;;;;;;;;5059536;28;20252;-87
2023/06/15 00:40:32;;;;;;;8.13;4.80;;;;;;;;;;5079456;28;20214;-86
2023/06/15 00:42:59;;;;;;;5.37;4.07;;;;;;;;;;5062710;28;20206;-86
2023/06/15 00:45:25;;;;;;;6.80;4.50;;;;;;;;;;5080286;28;20182;-87
2023/06/15 00:47:51;;;;;;;5.80;4.17;;;;;;;;;;5084336;28;20207;-86
2023/06/15 00:50:19;;;;;;;13.13;4.43;;;;;;;;;;5046706;28;20191;-86
2023/06/15 00:52:46;;;;;;;6.63;4.30;;;;;;;;;;5060788;28;20202;-87
2023/06/15 00:55:13;;;;;;;7.57;4.50;;;;;;;;;;5074729;28;20201;-86
2023/06/15 00:57:44;;;;;;;5.47;4.53;;;;;;;;;;5071012;28;20212;-87
2023/06/15 01:00:14;;;;;;;10.43;4.77;;;;;;;;;;5087813;28;20211;-86
2023/06/15 01:02:40;;;;;;;7.97;5.07;;;;;;;;;;5068859;28;20192;-86
2023/06/15 01:05:10;;;;;;;5.13;4.50;;;;;;;;;;5058903;28;20208;-86
2023/06/15 01:07:36;;;;;;;4.87;4.37;;;;;;;;;;5078577;28;20262;-87
2023/06/15 01:10:02;;;;;;;8.57;5.10;;;;;;;;;;5071289;28;20209;-86
2023/06/15 01:12:29;;;;;;;9.47;5.13;;;;;;;;;;5061990;28;20232;-87
2023/06/15 01:14:55;;;;;;;6.90;4.67;;;;;;;;;;5050322;28;20214;-87
2023/06/15 01:17:23;;;;;;;6.97;4.80;;;;;;;;;;5088285;28;20188;-86
2023/06/15 01:20:08;;;;;;;7.33;4.63;;;;;;;;;;5098684;28;20279;-86
2023/06/15 01:22:55;;;;;;;9.20;4.60;;;;;;;;;;5086779;28;20249;-87
2023/06/15 01:25:42;;;;;;;4.63;4.17;;;;;;;;;;5074509;28;20269;-86
2023/06/15 01:28:09;;;;;;;9.47;4.77;;;;;;;;;;5018646;28;20191;-86
2023/06/15 01:30:41;;;;;;;7.80;4.73;;;;;;;;;;5041785;28;20203;-87
2023/06/15 01:33:08;;;;;;;7.87;4.60;;;;;;;;;;5058201;28;20171;-87
2023/06/15 01:35:34;;;;;;;6.87;4.97;;;;;;;;;;5058107;28;20262;-86
2023/06/15 01:38:03;;;;;;;6.10;4.57;;;;;;;;;;5058376;28;20243;-84
2023/06/15 01:40:31;;;;;;;6.63;4.53;;;;;;;;;;5058116;28;20175;-87
2023/06/15 01:42:58;;;;;;;9.03;4.73;;;;;;;;;;5057424;28;20175;-86
2023/06/15 01:45:25;;;;;;;4.97;4.40;;;;;;;;;;5057614;28;20176;-86
2023/06/15 01:47:51;;;;;;;6.77;4.37;;;;;;;;;;5075264;28;20241;-86
2023/06/15 01:50:18;;;;;;;7.13;4.90;;;;;;;;;;5077610;28;20186;-85
2023/06/15 01:52:44;;;;;;;9.40;4.60;;;;;;;;;;5097923;28;20184;-85
2023/06/15 01:55:11;;;;;;;7.83;5.07;;;;;;;;;;5080949;28;20186;-86
2023/06/15 01:57:37;;;;;;;6.83;4.50;;;;;;;;;;5097494;28;20208;-86
2023/06/15 02:00:07;;;;;;;8.67;4.93;;;;;;;;;;5080530;28;20190;-86
2023/06/15 02:02:33;;;;;;;5.87;4.83;;;;;;;;;;5097604;28;20174;-86
2023/06/15 02:05:00;;;;;;;5.93;5.00;;;;;;;;;;5097524;28;20178;-86
2023/06/15 02:07:26;;;;;;;6.77;4.60;;;;;;;;;;5080269;28;20217;-85
2023/06/15 02:09:53;;;;;;;5.23;4.70;;;;;;;;;;5097346;28;20202;-86
2023/06/15 02:12:19;;;;;;;10.60;5.20;;;;;;;;;;5096517;28;20182;-86
2023/06/15 02:14:47;;;;;;;9.37;4.80;;;;;;;;;;5097079;28;20188;-86
2023/06/15 02:17:16;;;;;;;6.50;4.93;;;;;;;;;;5081086;28;20201;-86
2023/06/15 02:19:43;;;;;;;6.20;4.70;;;;;;;;;;5087236;28;20178;-86
2023/06/15 02:22:09;;;;;;;8.30;4.90;;;;;;;;;;5076466;28;20248;-84
2023/06/15 02:24:35;;;;;;;7.83;4.90;;;;;;;;;;5056388;28;20191;-84
2023/06/15 02:27:01;;;;;;;8.77;4.80;;;;;;;;;;5053023;28;20210;-83
2023/06/15 02:29:27;;;;;;;7.93;4.97;;;;;;;;;;5056932;28;20211;-84
2023/06/15 02:31:53;;;;;;;6.80;4.90;;;;;;;;;;5074521;28;20214;-84
2023/06/15 02:34:20;;;;;;;7.00;4.63;;;;;;;;;;5060081;28;20270;-84
2023/06/15 02:36:48;;;;;;;8.73;5.20;;;;;;;;;;5075735;28;20174;-85
2023/06/15 02:39:15;;;;;;;7.30;5.20;;;;;;;;;;5075843;28;20182;-84
2023/06/15 02:41:41;;;;;;;8.00;4.93;;;;;;;;;;5051092;28;20184;-84
2023/06/15 02:44:07;;;;;;;5.80;4.80;;;;;;;;;;5053776;28;20202;-84
2023/06/15 02:46:33;;;;;;;7.00;5.23;;;;;;;;;;5050935;28;20229;-85
2023/06/15 02:48:59;;;;;;;7.57;4.90;;;;;;;;;;5074448;28;20185;-84
2023/06/15 02:51:25;;;;;;;8.33;4.90;;;;;;;;;;5057930;28;20388;-84
2023/06/15 02:53:52;;;;;;;7.20;4.90;;;;;;;;;;5050516;28;20186;-84
2023/06/15 02:56:19;;;;;;;6.43;5.00;;;;;;;;;;5053401;28;20190;-84
2023/06/15 02:58:47;;;;;;;5.97;4.83;;;;;;;;;;5075219;28;20189;-84
2023/06/15 03:01:15;;;;;;;9.50;5.53;;;;;;;;;;5078070;28;20228;-84
2023/06/15 03:03:42;;;;;;;7.50;5.03;;;;;;;;;;5055197;28;20189;-84
2023/06/15 03:06:09;;;;;;;7.53;5.27;;;;;;;;;;5056776;28;20214;-84
2023/06/15 03:08:36;;;;;;;7.17;4.83;;;;;;;;;;5075058;28;20178;-84
2023/06/15 03:11:03;;;;;;;7.17;5.10;;;;;;;;;;5068395;28;20177;-84
2023/06/15 03:13:32;;;;;;;8.27;5.20;;;;;;;;;;5076036;28;20202;-84
2023/06/15 03:16:00;;;;;;;7.00;4.50;;;;;;;;;;5073956;28;20178;-83
2023/06/15 03:18:28;;;;;;;7.50;4.93;;;;;;;;;;5055339;28;20238;-84
2023/06/15 03:20:54;;;;;;;6.13;4.83;;;;;;;;;;5053288;28;20218;-84
2023/06/15 03:23:20;;;;;;;8.30;4.87;;;;;;;;;;5075434;28;20206;-84
2023/06/15 03:25:46;;;;;;;6.63;4.57;;;;;;;;;;5079596;28;20186;-84
2023/06/15 03:28:12;;;;;;;8.90;5.37;;;;;;;;;;5063491;28;20186;-84
2023/06/15 03:30:42;;;;;;;7.07;5.13;;;;;;;;;;5066386;28;20190;-84
2023/06/15 03:33:08;;;;;;;6.97;4.87;;;;;;;;;;5115116;28;20241;-84
2023/06/15 03:35:37;;;;;;;5.00;4.43;;;;;;;;;;5062681;28;20296;-84
2023/06/15 03:38:03;;;;;;;7.43;5.10;;;;;;;;;;5080838;28;20166;-84
2023/06/15 03:40:30;;;;;;;6.13;4.87;;;;;;;;;;5062193;28;20183;-84
2023/06/15 03:42:59;;;;;;;6.40;4.63;;;;;;;;;;5076547;28;20175;-84
2023/06/15 03:45:25;;;;;;;6.00;4.60;;;;;;;;;;5063095;28;20179;-84
2023/06/15 03:47:51;;;;;;;6.17;4.90;;;;;;;;;;5063336;28;20210;-84
2023/06/15 03:50:18;;;;;;;7.10;5.13;;;;;;;;;;5079593;28;20190;-84
2023/06/15 03:52:44;;;;;;;9.40;4.73;;;;;;;;;;5062820;28;20187;-84
2023/06/15 03:55:12;;;;;;;7.10;5.00;;;;;;;;;;5059676;28;20262;-84
2023/06/15 03:57:38;;;;;;;7.90;5.00;;;;;;;;;;5049924;28;20186;-84
2023/06/15 04:00:07;;;;;;;9.93;5.30;;;;;;;;;;5091544;28;20209;-84
2023/06/15 04:02:33;;;;;;;8.30;4.83;;;;;;;;;;5079682;28;20235;-84
2023/06/15 04:05:02;;;;;;;7.87;4.57;;;;;;;;;;5060326;28;20186;-84
2023/06/15 04:07:29;;;;;;;10.37;4.67;;;;;;;;;;5059229;28;20235;-84
2023/06/15 04:09:55;;;;;;;8.63;5.17;;;;;;;;;;5059355;28;20167;-84
2023/06/15 04:12:21;;;;;;;10.13;5.20;;;;;;;;;;5058919;28;20176;-84
2023/06/15 04:14:47;;;;;;;9.03;4.80;;;;;;;;;;5059077;28;20171;-84
2023/06/15 04:17:15;;;;;;;9.43;4.93;;;;;;;;;;5072364;28;20205;-84
2023/06/15 04:19:41;;;;;;;8.67;5.23;;;;;;;;;;5099246;28;20174;-84
2023/06/15 04:22:07;;;;;;;8.77;4.80;;;;;;;;;;5081427;28;20237;-84
2023/06/15 04:24:33;;;;;;;6.27;4.67;;;;;;;;;;5099548;28;20223;-84
2023/06/15 04:26:59;;;;;;;7.57;5.40;;;;;;;;;;5082304;28;20218;-84
2023/06/15 04:29:29;;;;;;;8.27;5.40;;;;;;;;;;5082293;28;20210;-84
2023/06/15 04:31:57;;;;;;;6.33;5.17;;;;;;;;;;5067317;28;20211;-85
2023/06/15 04:34:24;;;;;;;7.07;5.13;;;;;;;;;;5077634;28;20250;-84
2023/06/15 04:36:50;;;;;;;8.30;4.90;;;;;;;;;;5069536;28;20184;-84
2023/06/15 04:39:16;;;;;;;9.10;5.23;;;;;;;;;;5048569;28;20218;-84
2023/06/15 04:41:43;;;;;;;8.03;5.33;;;;;;;;;;5091546;28;20227;-84
2023/06/15 04:44:09;;;;;;;7.70;5.30;;;;;;;;;;5060830;28;20218;-85
2023/06/15 04:46:39;;;;;;;9.10;5.20;;;;;;;;;;5058633;28;20211;-84
2023/06/15 04:49:06;;;;;;;7.73;5.10;;;;;;;;;;5058793;28;20203;-84
2023/06/15 04:51:33;;;;;;;8.67;5.37;;;;;;;;;;5042111;28;20179;-84
2023/06/15 04:53:59;;;;;;;8.83;5.60;;;;;;;;;;5092200;28;20220;-84
2023/06/15 04:56:25;;;;;;;7.30;5.40;;;;;;;;;;5097850;28;20190;-84
2023/06/15 04:58:51;;;;;;;8.93;5.37;;;;;;;;;;5098880;28;20181;-84
2023/06/15 05:01:17;;;;;;;9.07;5.37;;;;;;;;;;5067629;28;20270;-84
2023/06/15 05:03:44;;;;;;;7.03;5.17;;;;;;;;;;5058401;28;20322;-84
2023/06/15 05:06:10;;;;;;;9.47;5.70;;;;;;;;;;5064291;28;20197;-84
2023/06/15 05:08:37;;;;;;;10.03;5.93;;;;;;;;;;5058257;28;20191;-84
2023/06/15 05:11:03;;;;;;;8.87;5.50;;;;;;;;;;5041640;28;20229;-84
2023/06/15 05:13:30;;;;;;;7.97;5.67;;;;;;;;;;5076840;28;20256;-85
2023/06/15 05:15:56;;;;;;;7.03;5.40;;;;;;;;;;5058266;28;20175;-84
2023/06/15 05:18:22;;;;;;;10.40;5.87;;;;;;;;;;5052251;28;20191;-85
2023/06/15 05:20:48;;;;;;;8.93;5.27;;;;;;;;;;5058168;28;20198;-84
2023/06/15 05:23:14;;;;;;;7.63;5.57;;;;;;;;;;5055278;28;20219;-84
2023/06/15 05:25:40;;;;;;;9.10;5.80;;;;;;;;;;5055736;28;20183;-85
2023/06/15 05:28:06;;;;;;;10.77;5.60;;;;;;;;;;5055848;28;20231;-82
2023/06/15 05:30:32;;;;;;;8.23;5.30;;;;;;;;;;5060442;28;20190;-81
2023/06/15 05:32:58;;;;;;;9.00;5.50;;;;;;;;;;5061725;28;20175;-81
2023/06/15 05:35:24;;;;;;;8.33;5.53;;;;;;;;;;5060843;28;20187;-81
2023/06/15 05:37:52;;;;;;;7.67;5.90;;;;;;;;;;5076909;28;20189;-80
2023/06/15 05:40:18;;;;;;;6.50;5.37;;;;;;;;;;5057794;28;20251;-80
2023/06/15 05:42:44;;;;;;;9.33;6.00;;;;;;;;;;5068308;28;20221;-80
2023/06/15 05:45:10;;;;;;;7.30;5.60;;;;;;;;;;5076416;28;20178;-80
2023/06/15 05:47:36;;;;;;;11.43;6.33;;;;;;;;;;5059927;28;20295;-80
2023/06/15 05:50:02;;;;;;;7.03;5.60;;;;;;;;;;5059251;28;20218;-80
2023/06/15 05:52:29;;;;;;;6.90;5.53;;;;;;;;;;5054308;28;20200;-83
2023/06/15 05:54:55;;;;;;;6.90;5.50;;;;;;;;;;5067716;28;20261;-83
2023/06/15 05:57:21;;;;;;;10.70;5.90;;;;;;;;;;5071143;28;20220;-87
2023/06/15 05:59:47;;;;;;;7.63;5.40;;;;;;;;;;5077508;28;20213;-85
2023/06/15 06:02:13;;;;;;;7.20;4.45;;;;;;;;;;5072764;28;20443;-85
2023/06/15 06:04:39;;;;;;;7.40;5.30;;;;;;;;;;5073230;28;20179;-80
2023/06/15 06:07:06;;;;;;;8.53;5.50;;;;;;;;;;5074159;28;20213;-80
2023/06/15 06:09:37;;;;;;;7.77;5.17;;;;;;;;;;5075722;28;20190;-80
2023/06/15 06:12:03;;;;;;;5.07;4.57;;;;;;;;;;5071378;28;20201;-80
2023/06/15 06:14:29;;;;;;;9.33;5.17;;;;;;;;;;5078210;28;20185;-79
2023/06/15 06:16:55;;;;;;;9.77;6.23;;;;;;;;;;5068114;28;20197;-80
2023/06/15 06:19:22;;;;;;;8.07;5.37;;;;;;;;;;5071720;28;20187;-80
2023/06/15 06:21:48;;;;;;;9.57;5.30;;;;;;;;;;5068715;28;20222;-80
2023/06/15 06:24:14;;;;;;;10.63;5.50;;;;;;;;;;5087057;28;20191;-80
2023/06/15 06:26:40;;;;;;;6.20;5.60;;;;;;;;;;5056354;28;20285;-80
2023/06/15 06:29:06;;;;;;;7.00;6.10;;;;;;;;;;5077373;28;20186;-81
2023/06/15 06:31:32;;;;;;;9.57;5.80;;;;;;;;;;5057039;28;20199;-81
2023/06/15 06:33:58;;;;;;;5.90;5.23;;;;;;;;;;5058217;28;20190;-81
2023/06/15 06:36:26;;;;;;;6.93;5.93;;;;;;;;;;5056689;28;20297;-81
2023/06/15 06:38:52;;;;;;;6.70;6.10;;;;;;;;;;5071264;28;20192;-80
2023/06/15 06:41:18;;;;;;;14.27;12.80;;;;;;;;;;5076065;28;20185;-81
2023/06/15 06:43:44;;;;;;;9.77;8.77;;;;;;;;;;5069080;28;20180;-81
2023/06/15 06:46:10;;;;;;;11.17;7.07;;;;;;;;;;5075844;28;20182;-80
2023/06/15 06:48:36;;;;;;;6.17;5.57;;;;;;;;;;5059731;28;20174;-80
2023/06/15 06:51:02;;;;;;;8.23;5.43;;;;;;;;;;5052732;28;20195;-80
2023/06/15 06:53:28;;;;;;;5.53;5.03;;;;;;;;;;5058718;28;20262;-79
2023/06/15 06:55:54;;;;;;;8.67;5.63;;;;;;;;;;5052348;28;20201;-80
2023/06/15 06:58:20;;;;;;;8.23;5.40;;;;;;;;;;5075467;28;20186;-82
2023/06/15 07:00:46;;;;;;;7.70;6.10;;;;;;;;;;5059329;28;20306;-82
2023/06/15 07:03:12;;;;;;;12.60;6.87;;;;;;;;;;5057894;28;20218;-79
2023/06/15 07:05:38;;;;;;;9.93;6.60;;;;;;;;;;5064752;28;20199;-80
2023/06/15 07:08:04;;;;;;;7.40;5.40;;;;;;;;;;5039679;28;20215;-80
2023/06/15 07:10:30;;;;;;;11.20;6.30;;;;;;;;;;5057243;28;20192;-81
2023/06/15 07:12:57;;;;;;;9.83;6.40;;;;;;;;;;5059982;28;20269;-80
2023/06/15 07:15:23;;;;;;;10.57;6.70;;;;;;;;;;5058613;28;20182;-80
2023/06/15 07:17:49;;;;;;;10.40;6.20;;;;;;;;;;5056470;28;20187;-81
2023/06/15 07:20:15;;;;;;;8.80;6.33;;;;;;;;;;5050223;28;20191;-81
2023/06/15 07:22:43;;;;;;;8.00;5.73;;;;;;;;;;5074073;28;20229;-81
2023/06/15 07:25:09;;;;;;;8.23;5.30;;;;;;;;;;5075694;28;20190;-81
2023/06/15 07:27:35;;;;;;;7.93;5.30;;;;;;;;;;5058634;28;20237;-81
2023/06/15 07:30:01;;;;;;;8.17;5.90;;;;;;;;;;5058607;28;20183;-80
2023/06/15 07:32:27;;;;;;;6.60;5.90;;;;;;;;;;5075817;28;20186;-81
2023/06/15 07:34:53;;;;;;;5.73;5.13;;;;;;;;;;5054705;28;20187;-80
2023/06/15 07:37:19;;;;;;;8.73;5.70;;;;;;;;;;5051346;28;20186;-81
2023/06/15 07:39:45;;;;;;;6.83;5.50;;;;;;;;;;5074125;28;20186;-81
2023/06/15 07:42:12;;;;;;;9.63;5.27;;;;;;;;;;5061400;28;20191;-82
2023/06/15 07:44:38;;;;;;;9.60;5.43;;;;;;;;;;5062183;28;20185;-82
2023/06/15 07:47:06;;;;;;;6.73;5.20;;;;;;;;;;5076522;28;20230;-82
2023/06/15 07:49:32;;;;;;;9.60;5.97;;;;;;;;;;5059168;28;20221;-82
2023/06/15 07:51:58;;;;;;;6.07;5.33;;;;;;;;;;5039471;28;20179;-82
2023/06/15 07:54:24;;;;;;;12.93;5.50;;;;;;;;;;5060100;28;20170;-81
2023/06/15 07:56:50;;;;;;;10.43;5.43;;;;;;;;;;5057838;28;20190;-80
2023/06/15 07:59:16;;;;;;;8.73;5.80;;;;;;;;;;5058793;28;20183;-81
2023/06/15 08:01:42;;;;;;;9.93;6.88;;;;;;;;;;5055127;28;20298;-81
2023/06/15 08:04:08;;;;;;;10.15;5.68;;;;;;;;;;5038912;28;20213;-81
2023/06/15 08:06:34;;;;;;;6.07;4.95;;;;;;;;;;5073860;28;20214;-81
2023/06/15 08:09:01;;;;;;;5.85;4.80;;;;;;;;;;5056719;28;20179;-82
2023/06/15 08:11:28;;;;;;;8.88;5.28;;;;;;;;;;5068777;28;20235;-82
2023/06/15 08:13:54;;;;;;;9.18;5.18;;;;;;;;;;5064477;28;20283;-82
2023/06/15 08:16:20;;;;;;;8.05;5.15;;;;;;;;;;5057795;28;20194;-82
2023/06/15 08:18:46;;;;;;;8.27;4.50;;;;;;;;;;5070350;28;20222;-82
2023/06/15 08:21:12;;;;;;;6.45;4.65;;;;;;;;;;5061761;28;20205;-82
2023/06/15 08:23:38;;;;;;;11.75;5.60;;;;;;;;;;5062563;28;20222;-81
2023/06/15 08:26:04;;;;;;;14.93;5.30;;;;;;;;;;5066863;28;20209;-82
2023/06/15 08:28:30;;;;;;;10.98;5.57;;;;;;;;;;5043016;28;20180;-82
2023/06/15 08:30:57;;;;;;;10.80;4.55;;;;;;;;;;5067889;28;20186;-82
2023/06/15 08:33:23;;;;;;;8.02;4.85;;;;;;;;;;5062208;28;20183;-81
2023/06/15 08:35:49;;;;;;;8.88;4.47;;;;;;;;;;5067106;28;20179;-81
2023/06/15 08:38:15;;;;;;;8.30;4.75;;;;;;;;;;5059416;28;20323;-82
2023/06/15 08:40:41;;;;;;;6.45;4.25;;;;;;;;;;5058627;28;20194;-82
2023/06/15 08:43:07;;;;;;;8.25;4.10;;;;;;;;;;5042053;28;20171;-81
2023/06/15 08:45:39;;;;;;;6.43;4.00;;;;;;;;;;5054248;28;20186;-82
2023/06/15 08:48:06;;;;;;;4.10;3.70;;;;;;;;;;5078571;28;20208;-81
2023/06/15 08:50:32;;;;;;;5.50;4.00;;;;;;;;;;5078669;28;20174;-82
2023/06/15 08:52:59;;;;;;;5.03;4.50;;;;;;;;;;5062027;28;20186;-82
2023/06/15 08:55:25;;;;;;;5.82;4.40;;;;;;;;;;5077373;28;20184;-82
2023/06/15 08:57:51;;;;;;;5.97;3.95;;;;;;;;;;5061878;28;20182;-82
2023/06/15 09:00:19;;;;;;;6.95;4.25;;;;;;;;;;5078223;28;20198;-82
2023/06/15 09:02:46;;;;;;;6.10;3.85;;;;;;;;;;5062314;28;20179;-82
2023/06/15 09:05:12;;;;;;;7.07;4.30;;;;;;;;;;5060139;28;20175;-82
2023/06/15 09:07:38;;;;;;;5.28;3.72;;;;;;;;;;5061461;28;20249;-84
2023/06/15 09:10:21;;;;;;;6.07;4.32;;;;;;;;;;5061733;28;20198;-84
2023/06/15 09:12:52;;;;;;;9.18;4.38;;;;;;;;;;5077959;28;20171;-83
2023/06/15 09:15:22;;;;;;;4.80;4.15;;;;;;;;;;5076584;28;20182;-84
2023/06/15 09:17:52;;;;;;;8.38;4.03;;;;;;;;;;5077985;28;20251;-84
2023/06/15 09:20:19;;;;;;;7.10;4.10;;;;;;;;;;5084876;28;20189;-84
2023/06/15 09:22:45;;;;;;;5.55;3.83;;;;;;;;;;5060711;28;20279;-85
2023/06/15 09:25:31;;;;;;;6.90;3.75;;;;;;;;;;5068600;28;20189;-83
2023/06/15 09:28:02;;;;;;;8.02;3.83;;;;;;;;;;5059370;28;20207;-86
2023/06/15 09:30:38;;;;;;;5.63;3.67;;;;;;;;;;5070037;28;20206;-83
2023/06/15 09:33:14;;;;;;;6.43;3.85;;;;;;;;;;5057844;28;20179;-83
2023/06/15 09:36:00;;;;;;;7.22;3.78;;;;;;;;;;5057940;28;20187;-83
2023/06/15 09:38:30;;;;;;;7.25;3.83;;;;;;;;;;5061134;28;20178;-83
2023/06/15 09:40:57;;;;;;;8.20;3.85;;;;;;;;;;5088255;28;20216;-83
2023/06/15 09:43:23;;;;;;;4.90;3.60;;;;;;;;;;5099368;28;20178;-83
2023/06/15 09:45:53;;;;;;;7.80;4.00;;;;;;;;;;5079351;28;20198;-83
2023/06/15 09:48:19;;;;;;;7.18;3.90;;;;;;;;;;5052560;28;20222;-82
2023/06/15 09:50:52;;;;;;;4.57;3.50;;;;;;;;;;5076668;28;20313;-83
2023/06/15 09:53:18;;;;;;;8.25;3.72;;;;;;;;;;5077110;28;20167;-82
2023/06/15 09:55:49;;;;;;;7.57;3.63;;;;;;;;;;5078720;28;20277;-83
2023/06/15 09:58:16;;;;;;;6.68;3.67;;;;;;;;;;5076617;28;20178;-82
2023/06/15 10:00:42;;;;;;;7.35;3.28;;;;;;;;;;5060540;28;20202;-82
2023/06/15 10:03:12;;;;;;;6.85;3.50;;;;;;;;;;5077019;28;20203;-82
2023/06/15 10:05:43;;;;;;;6.00;3.90;;;;;;;;;;5077094;28;20179;-82
2023/06/15 10:08:11;;;;;;;5.20;3.67;;;;;;;;;;5076882;28;20240;-83
2023/06/15 10:10:39;;;;;;;5.63;3.70;;;;;;;;;;5072359;28;20174;-82
2023/06/15 10:13:08;;;;;;;6.47;3.75;;;;;;;;;;5077250;28;20170;-82
2023/06/15 10:15:34;;;;;;;5.78;3.40;;;;;;;;;;5077834;28;20175;-81
2023/06/15 10:18:03;;;;;;;8.25;3.70;;;;;;;;;;5057536;28;20260;-82
2023/06/15 10:20:30;;;;;;;4.97;3.50;;;;;;;;;;5064657;28;20182;-82
2023/06/15 10:22:57;;;;;;;6.22;3.42;;;;;;;;;;5076405;28;20218;-82
2023/06/15 10:25:27;;;;;;;5.95;3.60;;;;;;;;;;5076660;28;20178;-82
2023/06/15 10:27:57;;;;;;;6.60;3.40;;;;;;;;;;5076271;28;20263;-83
2023/06/15 10:30:26;;;;;;;5.65;3.30;;;;;;;;;;5077752;28;20174;-83
2023/06/15 10:33:10;;;;;;;5.32;3.40;;;;;;;;;;5071617;28;20185;-83
2023/06/15 10:35:43;;;;;;;6.00;3.63;;;;;;;;;;5076950;28;20235;-81
2023/06/15 10:38:18;;;;;;;4.68;3.83;;;;;;;;;;5076398;28;20175;-82
2023/06/15 10:40:50;;;;;;;6.45;3.80;;;;;;;;;;5075517;28;20186;-82
2023/06/15 10:43:29;;;;;;;6.57;3.20;;;;;;;;;;5069411;28;20179;-82
2023/06/15 10:45:55;;;;;;;8.60;3.70;;;;;;;;;;5061917;28;20194;-82
2023/06/15 10:48:22;;;;;;;4.55;3.70;;;;;;;;;;5040480;28;20278;-82
2023/06/15 10:50:51;;;;;;;4.70;3.33;;;;;;;;;;5056719;28;20266;-83
2023/06/15 10:53:22;;;;;;;6.13;3.60;;;;;;;;;;5056624;28;20179;-82
2023/06/15 10:55:49;;;;;;;5.00;3.22;;;;;;;;;;5056598;28;20182;-82
2023/06/15 10:58:18;;;;;;;3.95;3.58;;;;;;;;;;5063212;28;20174;-82
2023/06/15 11:00:45;;;;;;;5.50;3.67;;;;;;;;;;5065293;28;20211;-81
2023/06/15 11:03:24;;;;;;;4.93;3.30;;;;;;;;;;5055803;28;20182;-81
2023/06/15 11:06:07;;;;;;;4.68;3.35;;;;;;;;;;5060382;28;20182;-82
2023/06/15 11:08:53;;;;;;;6.53;3.58;;;;;;;;;;5073113;28;20435;-81
2023/06/15 11:11:33;;;;;;;4.85;3.47;;;;;;;;;;5064582;28;20190;-81
2023/06/15 11:14:03;;;;;;;4.70;3.28;;;;;;;;;;5078921;28;20166;-80
2023/06/15 11:16:30;;;;;;;6.75;3.33;;;;;;;;;;5076031;28;20270;-82
2023/06/15 11:18:57;;;;;;;4.53;3.42;;;;;;;;;;5081353;28;20185;-82
2023/06/15 11:21:30;;;;;;;5.95;3.45;;;;;;;;;;5075053;28;20182;-81
2023/06/15 11:23:59;;;;;;;7.50;3.55;;;;;;;;;;5063077;28;20443;-82
2023/06/15 11:26:29;;;;;;;6.55;3.60;;;;;;;;;;5096806;28;20176;-83
2023/06/15 11:28:58;;;;;;;4.68;3.10;;;;;;;;;;5082109;28;20209;-81
2023/06/15 11:31:24;;;;;;;7.72;3.70;;;;;;;;;;5068347;28;20178;-82
2023/06/15 11:33:50;;;;;;;3.40;3.10;;;;;;;;;;5075350;28;20185;-82
2023/06/15 11:36:16;;;;;;;5.15;3.10;;;;;;;;;;5062050;28;20196;-83
2023/06/15 11:38:43;;;;;;;5.60;3.33;;;;;;;;;;5063151;28;20188;-82
2023/06/15 11:41:10;;;;;;;7.07;3.40;;;;;;;;;;5059674;28;20175;-81
2023/06/15 11:43:40;;;;;;;6.97;3.35;;;;;;;;;;5094526;28;20186;-82
2023/06/15 11:46:10;;;;;;;5.63;3.20;;;;;;;;;;5070360;28;20183;-82
2023/06/15 11:48:36;;;;;;;4.10;2.90;;;;;;;;;;5091288;28;20201;-82
2023/06/15 11:51:02;;;;;;;4.40;3.03;;;;;;;;;;5083656;28;20185;-81
2023/06/15 11:53:28;;;;;;;7.07;3.30;;;;;;;;;;5073196;28;20241;-81
2023/06/15 11:55:54;;;;;;;7.18;3.20;;;;;;;;;;5043350;28;20179;-81
2023/06/15 11:58:23;;;;;;;5.88;3.33;;;;;;;;;;5058670;28;20182;-81
2023/06/15 12:00:50;;;;;;;8.00;2.80;;;;;;;;;;5070179;28;20917;-81
2023/06/15 12:03:16;;;;;;;8.15;3.10;;;;;;;;;;5043287;28;20180;-80
2023/06/15 12:05:42;;;;;;;5.57;3.15;;;;;;;;;;5043456;28;20188;-81
2023/06/15 12:08:08;;;;;;;4.18;3.42;;;;;;;;;;5061262;28;20211;-82
2023/06/15 12:10:35;;;;;;;5.25;3.08;;;;;;;;;;5067564;28;20181;-82
2023/06/15 12:13:02;;;;;;;3.35;2.95;;;;;;;;;;5070784;28;20213;-83
2023/06/15 12:15:28;;;;;;;3.35;3.03;;;;;;;;;;5080211;28;20186;-83
2023/06/15 12:17:55;;;;;;;4.90;3.08;;;;;;;;;;5099571;28;20169;-83
2023/06/15 12:20:26;;;;;;;4.20;3.10;;;;;;;;;;5082343;28;20186;-83
2023/06/15 12:22:52;;;;;;;6.82;3.22;;;;;;;;;;5092277;28;20250;-83
2023/06/15 12:25:19;;;;;;;9.77;3.10;;;;;;;;;;5059800;28;20199;-82
2023/06/15 12:27:49;;;;;;;4.53;2.95;;;;;;;;;;5079646;28;20202;-81
2023/06/15 12:30:20;;;;;;;6.15;3.03;;;;;;;;;;5079514;28;20247;-81
2023/06/15 12:32:46;;;;;;;5.50;3.17;;;;;;;;;;5060923;28;20175;-81
2023/06/15 12:35:33;;;;;;;6.32;3.03;;;;;;;;;;5058884;28;20182;-81
2023/06/15 12:37:59;;;;;;;7.95;3.30;;;;;;;;;;5059180;28;20175;-81
2023/06/15 12:40:25;;;;;;;4.50;2.90;;;;;;;;;;5077541;28;20182;-80
2023/06/15 12:43:01;;;;;;;5.07;3.10;;;;;;;;;;5058655;28;20175;-80
2023/06/15 12:45:27;;;;;;;7.93;3.25;;;;;;;;;;5078101;28;20183;-80
2023/06/15 12:47:54;;;;;;;3.53;3.20;;;;;;;;;;5078877;28;20252;-82
2023/06/15 12:50:20;;;;;;;6.07;3.00;;;;;;;;;;5068523;28;20235;-80
2023/06/15 12:52:46;;;;;;;3.72;2.80;;;;;;;;;;5073894;28;20171;-80
2023/06/15 12:55:12;;;;;;;3.38;2.95;;;;;;;;;;5058786;28;20183;-80
2023/06/15 12:57:38;;;;;;;4.45;3.25;;;;;;;;;;5072548;28;20221;-80
2023/06/15 13:00:04;;;;;;;6.25;2.83;;;;;;;;;;5041871;28;20199;-81
2023/06/15 13:02:31;;;;;;;10.15;3.47;;;;;;;;;;5041860;28;20183;-82
2023/06/15 13:05:04;;;;;;;5.72;3.10;;;;;;;;;;5088418;28;20192;-83
2023/06/15 13:07:34;;;;;;;4.75;3.20;;;;;;;;;;5061773;28;20207;-82
2023/06/15 13:10:00;;;;;;;3.40;3.10;;;;;;;;;;5074722;28;20189;-82
2023/06/15 13:12:27;;;;;;;3.80;3.38;;;;;;;;;;5077831;28;20178;-81
2023/06/15 13:14:53;;;;;;;3.38;3.08;;;;;;;;;;5096865;28;20170;-82
2023/06/15 13:17:19;;;;;;;4.50;3.10;;;;;;;;;;5065850;28;20182;-83
2023/06/15 13:19:45;;;;;;;5.30;3.65;;;;;;;;;;5085035;28;20308;-82
2023/06/15 13:22:12;;;;;;;5.85;3.22;;;;;;;;;;5077933;28;20265;-81
2023/06/15 13:24:38;;;;;;;5.35;3.15;;;;;;;;;;5075797;28;20182;-80
2023/06/15 13:27:08;;;;;;;4.68;3.40;;;;;;;;;;5078151;28;20224;-80
2023/06/15 13:29:35;;;;;;;7.32;3.83;;;;;;;;;;5077688;28;20179;-81
2023/06/15 13:32:03;;;;;;;6.40;3.33;;;;;;;;;;5061229;28;20178;-82
2023/06/15 13:34:29;;;;;;;4.15;3.28;;;;;;;;;;5077418;28;20175;-81
2023/06/15 13:36:55;;;;;;;4.03;3.47;;;;;;;;;;5095455;28;20255;-80
2023/06/15 13:39:21;;;;;;;4.20;3.30;;;;;;;;;;5060555;28;20186;-82
2023/06/15 13:41:47;;;;;;;4.55;3.65;;;;;;;;;;5060800;28;20251;-80
2023/06/15 13:44:13;;;;;;;3.75;3.45;;;;;;;;;;5068520;28;20191;-80
2023/06/15 13:46:39;;;;;;;5.57;3.42;;;;;;;;;;5060784;28;20213;-79
2023/06/15 13:49:06;;;;;;;4.57;3.47;;;;;;;;;;5077382;28;20175;-80
2023/06/15 13:51:32;;;;;;;6.13;3.58;;;;;;;;;;5060871;28;20239;-80
2023/06/15 13:53:58;;;;;;;3.90;3.58;;;;;;;;;;5094923;28;20261;-80
2023/06/15 13:56:24;;;;;;;8.73;3.38;;;;;;;;;;5060535;28;20214;-80
2023/06/15 13:58:51;;;;;;;4.13;3.22;;;;;;;;;;5060470;28;20174;-80
2023/06/15 14:01:23;;;;;;;7.30;3.67;;;;;;;;;;5077713;28;20243;-81
2023/06/15 14:03:49;;;;;;;12.43;3.75;;;;;;;;;;5094908;28;20305;-82
2023/06/15 14:06:15;;;;;;;4.75;3.60;;;;;;;;;;5077026;28;20178;-82
2023/06/15 14:08:42;;;;;;;8.30;3.80;;;;;;;;;;5060029;28;20206;-81
2023/06/15 14:11:08;;;;;;;7.28;3.50;;;;;;;;;;5057231;28;20179;-83
2023/06/15 14:13:34;;;;;;;3.78;3.22;;;;;;;;;;5042145;28;20179;-82
2023/06/15 14:16:00;;;;;;;4.57;3.08;;;;;;;;;;5075794;28;20170;-82
2023/06/15 14:18:26;;;;;;;4.32;3.20;;;;;;;;;;5095662;28;20177;-80
2023/06/15 14:20:52;;;;;;;4.38;3.13;;;;;;;;;;5060368;28;20183;-81
2023/06/15 14:23:18;;;;;;;3.88;2.95;;;;;;;;;;5056427;28;20471;-82
2023/06/15 14:25:45;;;;;;;5.35;3.10;;;;;;;;;;5075658;28;20182;-81
2023/06/15 14:28:15;;;;;;;3.50;3.20;;;;;;;;;;5060120;28;20217;-82
2023/06/15 14:30:41;;;;;;;9.68;3.30;;;;;;;;;;5040414;28;20179;-81
2023/06/15 14:33:07;;;;;;;9.30;3.15;;;;;;;;;;5056643;28;20197;-82
2023/06/15 14:35:33;;;;;;;6.00;3.00;;;;;;;;;;5056278;28;20193;-80
2023/06/15 14:37:59;;;;;;;4.47;2.85;;;;;;;;;;5039765;28;20183;-81
2023/06/15 14:40:25;;;;;;;4.60;2.65;;;;;;;;;;5052147;28;20191;-82
2023/06/15 14:42:51;;;;;;;6.30;2.72;;;;;;;;;;5058893;28;20260;-80
2023/06/15 14:45:18;;;;;;;4.50;2.60;;;;;;;;;;5057885;28;20187;-81